sensor_id;sensor_type;location;lat;lon;timestamp;P1;durP1;ratioP1;P2;durP2;ratioP2
73331;SDS011;61560;33.718;73.040;2023-06-22T00:00:14;142.73;;;81.72;;
73331;SDS011;61560;33.718;73.040;2023-06-22T00:02:42;151.23;;;88.32;;
73331;SDS011;61560;33.718;73.040;2023-06-22T00:05:10;137.80;;;80.60;;
73331;SDS011;61560;33.718;73.040;2023-06-22T00:07:37;160.02;;;91.97;;
73331;SDS011;61560;33.718;73.040;2023-06-22T00:10:05;155.65;;;89.43;;
73331;SDS011;61560;33.718;73.040;2023-06-22T00:12:33;138.95;;;82.75;;
73331;SDS011;61560;33.718;73.040;2023-06-22T00:15:01;146.40;;;87.35;;
73331;SDS011;61560;33.718;73.040;2023-06-22T00:17:29;154.10;;;87.55;;
73331;SDS011;61560;33.718;73.040;2023-06-22T00:19:57;151.23;;;88.35;;
73331;SDS011;61560;33.718;73.040;2023-06-22T00:22:26;154.68;;;89.40;;
73331;SDS011;61560;33.718;73.040;2023-06-22T00:24:57;131.02;;;83.63;;
73331;SDS011;61560;33.718;73.040;2023-06-22T00:27:24;154.95;;;88.72;;
73331;SDS011;61560;33.718;73.040;2023-06-22T00:29:52;151.98;;;85.88;;
73331;SDS011;61560;33.718;73.040;2023-06-22T00:32:21;150.63;;;87.63;;
73331;SDS011;61560;33.718;73.040;2023-06-22T00:34:48;122.90;;;77.43;;
73331;SDS011;61560;33.718;73.040;2023-06-22T00:37:17;153.73;;;88.70;;
73331;SDS011;61560;33.718;73.040;2023-06-22T00:39:45;137.23;;;81.28;;
73331;SDS011;61560;33.718;73.040;2023-06-22T00:42:12;155.43;;;86.05;;
73331;SDS011;61560;33.718;73.040;2023-06-22T00:44:40;146.95;;;88.40;;
73331;SDS011;61560;33.718;73.040;2023-06-22T00:47:08;155.73;;;87.88;;
73331;SDS011;61560;33.718;73.040;2023-06-22T00:49:36;137.52;;;82.57;;
73331;SDS011;61560;33.718;73.040;2023-06-22T00:52:07;149.45;;;86.60;;
73331;SDS011;61560;33.718;73.040;2023-06-22T00:54:40;149.85;;;88.88;;
73331;SDS011;61560;33.718;73.040;2023-06-22T00:57:14;162.77;;;93.32;;
73331;SDS011;61560;33.718;73.040;2023-06-22T00:59:44;138.07;;;83.60;;
73331;SDS011;61560;33.718;73.040;2023-06-22T01:02:12;144.25;;;83.53;;
73331;SDS011;61560;33.718;73.040;2023-06-22T01:04:40;123.05;;;76.75;;
73331;SDS011;61560;33.718;73.040;2023-06-22T01:12:50;137.50;;;82.50;;
73331;SDS011;61560;33.718;73.040;2023-06-22T01:16:07;141.93;;;85.50;;
73331;SDS011;61560;33.718;73.040;2023-06-22T01:18:31;148.50;;;87.57;;
73331;SDS011;61560;33.718;73.040;2023-06-22T01:21:04;126.88;;;75.47;;
73331;SDS011;61560;33.718;73.040;2023-06-22T01:29:20;144.05;;;84.55;;
73331;SDS011;61560;33.718;73.040;2023-06-22T01:31:49;135.02;;;74.75;;
73331;SDS011;61560;33.718;73.040;2023-06-22T01:34:18;119.18;;;70.03;;
73331;SDS011;61560;33.718;73.040;2023-06-22T01:36:46;125.75;;;72.97;;
73331;SDS011;61560;33.718;73.040;2023-06-22T01:39:14;48.35;;;26.92;;
73331;SDS011;61560;33.718;73.040;2023-06-22T01:41:43;44.80;;;23.17;;
73331;SDS011;61560;33.718;73.040;2023-06-22T01:44:14;39.13;;;24.00;;
73331;SDS011;61560;33.718;73.040;2023-06-22T01:46:43;45.28;;;24.65;;
73331;SDS011;61560;33.718;73.040;2023-06-22T01:49:13;41.05;;;23.67;;
73331;SDS011;61560;33.718;73.040;2023-06-22T01:51:41;42.50;;;24.30;;
73331;SDS011;61560;33.718;73.040;2023-06-22T01:54:09;68.85;;;26.13;;
73331;SDS011;61560;33.718;73.040;2023-06-22T01:56:38;53.60;;;25.52;;
73331;SDS011;61560;33.718;73.040;2023-06-22T02:02:09;44.80;;;23.00;;
73331;SDS011;61560;33.718;73.040;2023-06-22T02:04:44;46.22;;;22.73;;
73331;SDS011;61560;33.718;73.040;2023-06-22T02:07:14;41.20;;;23.95;;
73331;SDS011;61560;33.718;73.040;2023-06-22T02:12:13;41.70;;;22.92;;
73331;SDS011;61560;33.718;73.040;2023-06-22T02:14:48;45.67;;;22.65;;
73331;SDS011;61560;33.718;73.040;2023-06-22T02:17:17;48.80;;;23.10;;
73331;SDS011;61560;33.718;73.040;2023-06-22T02:19:45;45.17;;;23.88;;
73331;SDS011;61560;33.718;73.040;2023-06-22T02:22:14;41.05;;;22.52;;
73331;SDS011;61560;33.718;73.040;2023-06-22T02:24:43;38.08;;;22.13;;
73331;SDS011;61560;33.718;73.040;2023-06-22T02:27:11;43.53;;;24.00;;
73331;SDS011;61560;33.718;73.040;2023-06-22T02:29:39;39.03;;;22.00;;
73331;SDS011;61560;33.718;73.040;2023-06-22T02:32:09;43.80;;;22.70;;
73331;SDS011;61560;33.718;73.040;2023-06-22T02:34:38;46.85;;;22.17;;
73331;SDS011;61560;33.718;73.040;2023-06-22T02:37:05;38.50;;;21.33;;
73331;SDS011;61560;33.718;73.040;2023-06-22T02:39:33;41.75;;;20.75;;
73331;SDS011;61560;33.718;73.040;2023-06-22T02:42:01;42.25;;;22.25;;
73331;SDS011;61560;33.718;73.040;2023-06-22T02:44:29;43.22;;;21.60;;
73331;SDS011;61560;33.718;73.040;2023-06-22T02:46:56;38.22;;;21.58;;
73331;SDS011;61560;33.718;73.040;2023-06-22T02:49:25;48.30;;;23.27;;
73331;SDS011;61560;33.718;73.040;2023-06-22T02:51:52;39.08;;;21.42;;
73331;SDS011;61560;33.718;73.040;2023-06-22T02:54:22;48.28;;;21.42;;
73331;SDS011;61560;33.718;73.040;2023-06-22T02:56:52;40.43;;;20.97;;
73331;SDS011;61560;33.718;73.040;2023-06-22T02:59:21;43.08;;;21.45;;
73331;SDS011;61560;33.718;73.040;2023-06-22T03:01:52;34.33;;;19.83;;
73331;SDS011;61560;33.718;73.040;2023-06-22T03:04:28;38.33;;;21.38;;
73331;SDS011;61560;33.718;73.040;2023-06-22T03:06:57;37.63;;;21.33;;
73331;SDS011;61560;33.718;73.040;2023-06-22T03:09:28;38.13;;;21.60;;
73331;SDS011;61560;33.718;73.040;2023-06-22T03:11:57;40.40;;;21.25;;
73331;SDS011;61560;33.718;73.040;2023-06-22T03:14:30;48.28;;;22.65;;
73331;SDS011;61560;33.718;73.040;2023-06-22T03:16:58;47.45;;;21.63;;
73331;SDS011;61560;33.718;73.040;2023-06-22T03:19:29;45.72;;;21.30;;
73331;SDS011;61560;33.718;73.040;2023-06-22T03:21:59;38.58;;;20.98;;
73331;SDS011;61560;33.718;73.040;2023-06-22T03:24:27;53.63;;;22.60;;
73331;SDS011;61560;33.718;73.040;2023-06-22T03:26:55;34.45;;;21.15;;
73331;SDS011;61560;33.718;73.040;2023-06-22T03:29:23;37.35;;;21.98;;
73331;SDS011;61560;33.718;73.040;2023-06-22T03:31:51;39.58;;;20.63;;
73331;SDS011;61560;33.718;73.040;2023-06-22T03:34:20;40.30;;;22.15;;
73331;SDS011;61560;33.718;73.040;2023-06-22T03:36:51;39.38;;;22.67;;
73331;SDS011;61560;33.718;73.040;2023-06-22T03:39:19;49.13;;;23.08;;
73331;SDS011;61560;33.718;73.040;2023-06-22T03:41:46;42.03;;;22.50;;
73331;SDS011;61560;33.718;73.040;2023-06-22T03:44:14;47.75;;;23.80;;
73331;SDS011;61560;33.718;73.040;2023-06-22T03:46:42;37.80;;;22.38;;
73331;SDS011;61560;33.718;73.040;2023-06-22T03:49:11;49.25;;;22.83;;
73331;SDS011;61560;33.718;73.040;2023-06-22T03:51:38;44.50;;;23.23;;
73331;SDS011;61560;33.718;73.040;2023-06-22T03:54:06;42.17;;;23.30;;
73331;SDS011;61560;33.718;73.040;2023-06-22T03:56:34;42.53;;;23.50;;
73331;SDS011;61560;33.718;73.040;2023-06-22T03:59:02;43.85;;;22.27;;
73331;SDS011;61560;33.718;73.040;2023-06-22T04:01:29;41.75;;;25.42;;
73331;SDS011;61560;33.718;73.040;2023-06-22T04:03:57;42.85;;;24.80;;
73331;SDS011;61560;33.718;73.040;2023-06-22T04:06:24;46.95;;;23.98;;
73331;SDS011;61560;33.718;73.040;2023-06-22T04:08:52;44.50;;;23.33;;
73331;SDS011;61560;33.718;73.040;2023-06-22T04:11:20;41.03;;;24.63;;
73331;SDS011;61560;33.718;73.040;2023-06-22T04:13:47;45.65;;;24.60;;
73331;SDS011;61560;33.718;73.040;2023-06-22T04:16:17;40.45;;;23.23;;
73331;SDS011;61560;33.718;73.040;2023-06-22T04:18:45;37.00;;;23.40;;
73331;SDS011;61560;33.718;73.040;2023-06-22T04:21:13;38.55;;;23.20;;
73331;SDS011;61560;33.718;73.040;2023-06-22T04:23:41;37.78;;;24.15;;
73331;SDS011;61560;33.718;73.040;2023-06-22T04:26:09;42.08;;;22.88;;
73331;SDS011;61560;33.718;73.040;2023-06-22T04:28:37;45.13;;;24.45;;
73331;SDS011;61560;33.718;73.040;2023-06-22T04:31:04;51.38;;;23.02;;
73331;SDS011;61560;33.718;73.040;2023-06-22T04:33:32;44.70;;;27.00;;
73331;SDS011;61560;33.718;73.040;2023-06-22T04:36:00;59.75;;;35.78;;
73331;SDS011;61560;33.718;73.040;2023-06-22T04:38:28;98.18;;;65.63;;
73331;SDS011;61560;33.718;73.040;2023-06-22T04:40:59;48.35;;;33.28;;
73331;SDS011;61560;33.718;73.040;2023-06-22T04:43:30;46.70;;;23.23;;
73331;SDS011;61560;33.718;73.040;2023-06-22T04:45:57;38.13;;;20.95;;
73331;SDS011;61560;33.718;73.040;2023-06-22T04:48:29;55.92;;;22.15;;
73331;SDS011;61560;33.718;73.040;2023-06-22T04:51:01;37.78;;;21.10;;
73331;SDS011;61560;33.718;73.040;2023-06-22T04:53:31;53.40;;;22.80;;
73331;SDS011;61560;33.718;73.040;2023-06-22T04:55:58;48.08;;;22.52;;
73331;SDS011;61560;33.718;73.040;2023-06-22T04:58:26;36.03;;;20.85;;
73331;SDS011;61560;33.718;73.040;2023-06-22T05:00:54;39.58;;;21.98;;
73331;SDS011;61560;33.718;73.040;2023-06-22T05:03:24;38.33;;;19.65;;
73331;SDS011;61560;33.718;73.040;2023-06-22T05:05:52;40.70;;;19.83;;
73331;SDS011;61560;33.718;73.040;2023-06-22T05:08:20;39.20;;;19.60;;
73331;SDS011;61560;33.718;73.040;2023-06-22T05:10:52;42.30;;;21.15;;
73331;SDS011;61560;33.718;73.040;2023-06-22T05:13:20;36.13;;;19.98;;
73331;SDS011;61560;33.718;73.040;2023-06-22T05:15:48;26.35;;;18.58;;
73331;SDS011;61560;33.718;73.040;2023-06-22T05:18:15;42.53;;;23.73;;
73331;SDS011;61560;33.718;73.040;2023-06-22T05:20:43;46.30;;;23.67;;
73331;SDS011;61560;33.718;73.040;2023-06-22T05:23:10;42.45;;;21.90;;
73331;SDS011;61560;33.718;73.040;2023-06-22T05:25:38;39.83;;;22.15;;
73331;SDS011;61560;33.718;73.040;2023-06-22T05:28:06;44.08;;;20.83;;
73331;SDS011;61560;33.718;73.040;2023-06-22T05:30:37;37.13;;;19.88;;
73331;SDS011;61560;33.718;73.040;2023-06-22T05:33:05;40.50;;;22.33;;
73331;SDS011;61560;33.718;73.040;2023-06-22T05:35:33;41.80;;;21.65;;
73331;SDS011;61560;33.718;73.040;2023-06-22T05:38:00;33.47;;;19.75;;
73331;SDS011;61560;33.718;73.040;2023-06-22T05:40:28;37.08;;;18.67;;
73331;SDS011;61560;33.718;73.040;2023-06-22T05:42:56;36.95;;;18.77;;
73331;SDS011;61560;33.718;73.040;2023-06-22T05:45:24;41.20;;;18.48;;
73331;SDS011;61560;33.718;73.040;2023-06-22T05:47:51;44.88;;;23.88;;
73331;SDS011;61560;33.718;73.040;2023-06-22T05:50:19;45.78;;;27.90;;
73331;SDS011;61560;33.718;73.040;2023-06-22T05:52:48;40.55;;;22.30;;
73331;SDS011;61560;33.718;73.040;2023-06-22T05:55:16;42.97;;;19.90;;
73331;SDS011;61560;33.718;73.040;2023-06-22T05:57:44;34.10;;;17.08;;
73331;SDS011;61560;33.718;73.040;2023-06-22T06:00:12;45.08;;;16.15;;
73331;SDS011;61560;33.718;73.040;2023-06-22T06:02:40;33.05;;;16.73;;
73331;SDS011;61560;33.718;73.040;2023-06-22T06:05:10;42.17;;;18.50;;
73331;SDS011;61560;33.718;73.040;2023-06-22T06:07:41;42.53;;;18.23;;
73331;SDS011;61560;33.718;73.040;2023-06-22T06:10:09;34.65;;;18.10;;
73331;SDS011;61560;33.718;73.040;2023-06-22T06:12:38;37.28;;;19.55;;
73331;SDS011;61560;33.718;73.040;2023-06-22T06:15:05;44.05;;;21.88;;
73331;SDS011;61560;33.718;73.040;2023-06-22T06:17:33;35.88;;;17.60;;
73331;SDS011;61560;33.718;73.040;2023-06-22T06:20:01;42.40;;;18.13;;
73331;SDS011;61560;33.718;73.040;2023-06-22T06:22:31;46.27;;;17.60;;
73331;SDS011;61560;33.718;73.040;2023-06-22T06:24:58;33.80;;;17.08;;
73331;SDS011;61560;33.718;73.040;2023-06-22T06:27:26;45.03;;;17.42;;
73331;SDS011;61560;33.718;73.040;2023-06-22T06:29:55;37.50;;;17.10;;
73331;SDS011;61560;33.718;73.040;2023-06-22T06:32:23;40.13;;;16.80;;
73331;SDS011;61560;33.718;73.040;2023-06-22T06:34:51;36.50;;;17.60;;
73331;SDS011;61560;33.718;73.040;2023-06-22T06:37:18;40.70;;;17.88;;
73331;SDS011;61560;33.718;73.040;2023-06-22T06:39:46;37.95;;;16.60;;
73331;SDS011;61560;33.718;73.040;2023-06-22T06:42:14;38.85;;;16.52;;
73331;SDS011;61560;33.718;73.040;2023-06-22T06:47:14;39.95;;;16.17;;
73331;SDS011;61560;33.718;73.040;2023-06-22T06:49:43;33.08;;;16.95;;
73331;SDS011;61560;33.718;73.040;2023-06-22T06:52:11;34.28;;;15.15;;
73331;SDS011;61560;33.718;73.040;2023-06-22T06:54:38;38.78;;;15.52;;
73331;SDS011;61560;33.718;73.040;2023-06-22T06:57:08;39.70;;;15.27;;
73331;SDS011;61560;33.718;73.040;2023-06-22T06:59:36;34.33;;;15.80;;
73331;SDS011;61560;33.718;73.040;2023-06-22T07:02:04;35.40;;;14.88;;
73331;SDS011;61560;33.718;73.040;2023-06-22T07:04:32;41.35;;;15.70;;
73331;SDS011;61560;33.718;73.040;2023-06-22T07:07:01;32.63;;;15.32;;
73331;SDS011;61560;33.718;73.040;2023-06-22T07:09:29;33.33;;;16.17;;
73331;SDS011;61560;33.718;73.040;2023-06-22T07:11:57;33.78;;;15.05;;
73331;SDS011;61560;33.718;73.040;2023-06-22T07:14:24;39.33;;;15.73;;
73331;SDS011;61560;33.718;73.040;2023-06-22T07:16:52;29.63;;;15.30;;
73331;SDS011;61560;33.718;73.040;2023-06-22T07:19:26;36.20;;;15.68;;
73331;SDS011;61560;33.718;73.040;2023-06-22T07:21:55;41.90;;;15.48;;
73331;SDS011;61560;33.718;73.040;2023-06-22T07:24:22;35.25;;;16.02;;
73331;SDS011;61560;33.718;73.040;2023-06-22T07:26:51;37.28;;;14.80;;
73331;SDS011;61560;33.718;73.040;2023-06-22T07:29:19;35.85;;;16.15;;
73331;SDS011;61560;33.718;73.040;2023-06-22T07:31:48;33.58;;;15.25;;
73331;SDS011;61560;33.718;73.040;2023-06-22T07:34:22;42.03;;;16.90;;
73331;SDS011;61560;33.718;73.040;2023-06-22T07:36:50;32.85;;;16.63;;
73331;SDS011;61560;33.718;73.040;2023-06-22T07:39:18;32.95;;;16.20;;
73331;SDS011;61560;33.718;73.040;2023-06-22T07:41:48;42.03;;;17.52;;
73331;SDS011;61560;33.718;73.040;2023-06-22T07:44:17;35.92;;;17.13;;
73331;SDS011;61560;33.718;73.040;2023-06-22T07:46:45;45.78;;;17.90;;
73331;SDS011;61560;33.718;73.040;2023-06-22T07:49:12;40.38;;;17.15;;
73331;SDS011;61560;33.718;73.040;2023-06-22T07:51:40;40.15;;;17.10;;
73331;SDS011;61560;33.718;73.040;2023-06-22T07:54:08;39.70;;;17.23;;
73331;SDS011;61560;33.718;73.040;2023-06-22T07:56:37;45.45;;;17.52;;
73331;SDS011;61560;33.718;73.040;2023-06-22T07:59:07;36.28;;;17.38;;
73331;SDS011;61560;33.718;73.040;2023-06-22T08:01:35;37.13;;;17.17;;
73331;SDS011;61560;33.718;73.040;2023-06-22T08:04:02;38.30;;;17.40;;
73331;SDS011;61560;33.718;73.040;2023-06-22T08:06:32;40.28;;;17.30;;
73331;SDS011;61560;33.718;73.040;2023-06-22T08:08:59;36.92;;;18.38;;
73331;SDS011;61560;33.718;73.040;2023-06-22T08:11:27;40.38;;;18.42;;
73331;SDS011;61560;33.718;73.040;2023-06-22T08:13:55;35.17;;;17.92;;
73331;SDS011;61560;33.718;73.040;2023-06-22T08:16:24;55.42;;;18.15;;
73331;SDS011;61560;33.718;73.040;2023-06-22T08:18:52;39.13;;;18.02;;
73331;SDS011;61560;33.718;73.040;2023-06-22T08:21:21;45.35;;;19.80;;
73331;SDS011;61560;33.718;73.040;2023-06-22T08:23:48;41.85;;;18.40;;
73331;SDS011;61560;33.718;73.040;2023-06-22T08:26:17;34.40;;;17.88;;
73331;SDS011;61560;33.718;73.040;2023-06-22T08:28:44;39.63;;;17.52;;
73331;SDS011;61560;33.718;73.040;2023-06-22T08:31:12;44.15;;;18.48;;
73331;SDS011;61560;33.718;73.040;2023-06-22T08:33:43;49.40;;;17.83;;
73331;SDS011;61560;33.718;73.040;2023-06-22T08:36:12;38.75;;;18.30;;
73331;SDS011;61560;33.718;73.040;2023-06-22T08:38:40;36.42;;;18.30;;
73331;SDS011;61560;33.718;73.040;2023-06-22T08:41:08;33.33;;;16.98;;
73331;SDS011;61560;33.718;73.040;2023-06-22T08:43:36;37.17;;;17.33;;
73331;SDS011;61560;33.718;73.040;2023-06-22T08:46:03;34.95;;;17.75;;
73331;SDS011;61560;33.718;73.040;2023-06-22T08:48:31;33.88;;;17.15;;
73331;SDS011;61560;33.718;73.040;2023-06-22T08:50:58;29.70;;;17.00;;
73331;SDS011;61560;33.718;73.040;2023-06-22T08:53:26;40.03;;;16.80;;
73331;SDS011;61560;33.718;73.040;2023-06-22T08:55:54;38.80;;;16.85;;
73331;SDS011;61560;33.718;73.040;2023-06-22T08:58:21;40.25;;;17.92;;
73331;SDS011;61560;33.718;73.040;2023-06-22T09:00:50;39.58;;;18.15;;
73331;SDS011;61560;33.718;73.040;2023-06-22T09:03:19;32.58;;;17.88;;
73331;SDS011;61560;33.718;73.040;2023-06-22T09:05:46;42.00;;;18.48;;
73331;SDS011;61560;33.718;73.040;2023-06-22T09:08:14;36.15;;;18.10;;
73331;SDS011;61560;33.718;73.040;2023-06-22T09:10:42;37.90;;;18.38;;
73331;SDS011;61560;33.718;73.040;2023-06-22T09:13:10;38.00;;;18.63;;
73331;SDS011;61560;33.718;73.040;2023-06-22T09:15:37;39.78;;;18.58;;
73331;SDS011;61560;33.718;73.040;2023-06-22T09:18:10;37.22;;;18.58;;
73331;SDS011;61560;33.718;73.040;2023-06-22T09:20:38;39.50;;;18.17;;
73331;SDS011;61560;33.718;73.040;2023-06-22T09:23:05;36.28;;;18.92;;
73331;SDS011;61560;33.718;73.040;2023-06-22T09:25:35;33.88;;;18.77;;
73331;SDS011;61560;33.718;73.040;2023-06-22T09:28:03;32.17;;;19.48;;
73331;SDS011;61560;33.718;73.040;2023-06-22T09:30:33;34.30;;;19.00;;
73331;SDS011;61560;33.718;73.040;2023-06-22T09:33:00;42.08;;;19.70;;
73331;SDS011;61560;33.718;73.040;2023-06-22T09:35:31;43.20;;;20.95;;
73331;SDS011;61560;33.718;73.040;2023-06-22T09:38:01;42.42;;;20.35;;
73331;SDS011;61560;33.718;73.040;2023-06-22T09:40:29;37.95;;;19.10;;
73331;SDS011;61560;33.718;73.040;2023-06-22T09:42:59;42.25;;;19.10;;
73331;SDS011;61560;33.718;73.040;2023-06-22T09:45:27;42.05;;;19.88;;
73331;SDS011;61560;33.718;73.040;2023-06-22T09:47:55;38.47;;;19.27;;
73331;SDS011;61560;33.718;73.040;2023-06-22T09:50:25;38.88;;;19.90;;
73331;SDS011;61560;33.718;73.040;2023-06-22T09:52:53;40.70;;;20.67;;
73331;SDS011;61560;33.718;73.040;2023-06-22T09:55:21;39.25;;;20.55;;
73331;SDS011;61560;33.718;73.040;2023-06-22T09:57:50;45.08;;;20.00;;
73331;SDS011;61560;33.718;73.040;2023-06-22T11:00:13;40.25;;;20.35;;
73331;SDS011;61560;33.718;73.040;2023-06-22T11:02:42;39.70;;;20.35;;
73331;SDS011;61560;33.718;73.040;2023-06-22T11:05:13;42.08;;;20.27;;
73331;SDS011;61560;33.718;73.040;2023-06-22T11:07:41;33.97;;;19.02;;
73331;SDS011;61560;33.718;73.040;2023-06-22T11:10:11;43.30;;;18.35;;
73331;SDS011;61560;33.718;73.040;2023-06-22T11:12:39;44.47;;;19.95;;
73331;SDS011;61560;33.718;73.040;2023-06-22T11:15:09;38.97;;;18.63;;
73331;SDS011;61560;33.718;73.040;2023-06-22T11:17:37;35.83;;;19.08;;
73331;SDS011;61560;33.718;73.040;2023-06-22T11:20:05;29.85;;;17.77;;
73331;SDS011;61560;33.718;73.040;2023-06-22T11:22:40;37.70;;;19.00;;
73331;SDS011;61560;33.718;73.040;2023-06-22T11:25:11;40.08;;;19.13;;
73331;SDS011;61560;33.718;73.040;2023-06-22T11:27:39;37.65;;;18.35;;
73331;SDS011;61560;33.718;73.040;2023-06-22T11:30:07;40.42;;;19.40;;
73331;SDS011;61560;33.718;73.040;2023-06-22T11:32:35;37.58;;;19.10;;
73331;SDS011;61560;33.718;73.040;2023-06-22T11:35:03;45.83;;;19.48;;
73331;SDS011;61560;33.718;73.040;2023-06-22T11:37:31;32.38;;;17.90;;
73331;SDS011;61560;33.718;73.040;2023-06-22T11:39:59;35.42;;;17.95;;
73331;SDS011;61560;33.718;73.040;2023-06-22T11:42:27;36.15;;;18.38;;
73331;SDS011;61560;33.718;73.040;2023-06-22T11:44:54;37.30;;;18.75;;
73331;SDS011;61560;33.718;73.040;2023-06-22T11:47:22;46.35;;;19.05;;
73331;SDS011;61560;33.718;73.040;2023-06-22T11:49:50;35.05;;;18.05;;
73331;SDS011;61560;33.718;73.040;2023-06-22T11:52:17;44.67;;;17.50;;
73331;SDS011;61560;33.718;73.040;2023-06-22T11:54:45;36.28;;;18.25;;
73331;SDS011;61560;33.718;73.040;2023-06-22T11:57:13;35.60;;;18.52;;
73331;SDS011;61560;33.718;73.040;2023-06-22T11:59:43;41.00;;;19.65;;
73331;SDS011;61560;33.718;73.040;2023-06-22T12:02:11;30.98;;;18.52;;
73331;SDS011;61560;33.718;73.040;2023-06-22T12:04:39;37.67;;;18.52;;
73331;SDS011;61560;33.718;73.040;2023-06-22T12:07:06;38.58;;;18.52;;
73331;SDS011;61560;33.718;73.040;2023-06-22T12:09:34;35.70;;;18.58;;
73331;SDS011;61560;33.718;73.040;2023-06-22T12:12:01;44.75;;;18.58;;
73331;SDS011;61560;33.718;73.040;2023-06-22T12:14:30;32.78;;;18.48;;
73331;SDS011;61560;33.718;73.040;2023-06-22T12:16:58;30.08;;;17.45;;
73331;SDS011;61560;33.718;73.040;2023-06-22T12:19:25;42.40;;;19.55;;
73331;SDS011;61560;33.718;73.040;2023-06-22T12:21:55;39.95;;;18.17;;
73331;SDS011;61560;33.718;73.040;2023-06-22T12:24:23;34.15;;;16.30;;
73331;SDS011;61560;33.718;73.040;2023-06-22T12:26:51;41.75;;;18.88;;
73331;SDS011;61560;33.718;73.040;2023-06-22T12:29:19;47.55;;;20.17;;
73331;SDS011;61560;33.718;73.040;2023-06-22T12:31:47;42.03;;;19.80;;
73331;SDS011;61560;33.718;73.040;2023-06-22T12:34:14;52.65;;;19.60;;
73331;SDS011;61560;33.718;73.040;2023-06-22T12:36:42;37.05;;;19.23;;
73331;SDS011;61560;33.718;73.040;2023-06-22T12:39:11;34.88;;;17.95;;
73331;SDS011;61560;33.718;73.040;2023-06-22T12:41:38;38.45;;;18.83;;
73331;SDS011;61560;33.718;73.040;2023-06-22T12:44:06;44.72;;;18.90;;
73331;SDS011;61560;33.718;73.040;2023-06-22T12:46:35;41.70;;;18.58;;
73331;SDS011;61560;33.718;73.040;2023-06-22T12:49:04;36.50;;;19.15;;
73331;SDS011;61560;33.718;73.040;2023-06-22T12:51:32;48.33;;;19.17;;
73331;SDS011;61560;33.718;73.040;2023-06-22T12:54:00;38.38;;;17.65;;
73331;SDS011;61560;33.718;73.040;2023-06-22T12:56:28;35.20;;;17.45;;
73331;SDS011;61560;33.718;73.040;2023-06-22T12:58:56;46.70;;;19.13;;
73331;SDS011;61560;33.718;73.040;2023-06-22T13:01:23;41.75;;;19.67;;
73331;SDS011;61560;33.718;73.040;2023-06-22T13:03:51;37.50;;;19.75;;
73331;SDS011;61560;33.718;73.040;2023-06-22T13:06:19;42.40;;;20.15;;
73331;SDS011;61560;33.718;73.040;2023-06-22T13:08:47;59.95;;;20.63;;
73331;SDS011;61560;33.718;73.040;2023-06-22T13:11:15;45.58;;;18.08;;
73331;SDS011;61560;33.718;73.040;2023-06-22T13:13:44;39.00;;;18.35;;
73331;SDS011;61560;33.718;73.040;2023-06-22T13:16:14;34.92;;;18.65;;
73331;SDS011;61560;33.718;73.040;2023-06-22T13:18:41;41.78;;;18.08;;
73331;SDS011;61560;33.718;73.040;2023-06-22T13:21:12;49.08;;;19.00;;
73331;SDS011;61560;33.718;73.040;2023-06-22T13:23:40;40.20;;;18.83;;
73331;SDS011;61560;33.718;73.040;2023-06-22T13:26:08;39.90;;;17.42;;
73331;SDS011;61560;33.718;73.040;2023-06-22T13:28:36;43.25;;;19.00;;
73331;SDS011;61560;33.718;73.040;2023-06-22T13:31:06;33.38;;;18.25;;
73331;SDS011;61560;33.718;73.040;2023-06-22T13:33:33;37.15;;;17.05;;
73331;SDS011;61560;33.718;73.040;2023-06-22T13:36:01;47.08;;;19.23;;
73331;SDS011;61560;33.718;73.040;2023-06-22T13:38:35;33.38;;;17.00;;
73331;SDS011;61560;33.718;73.040;2023-06-22T13:41:05;35.50;;;17.77;;
73331;SDS011;61560;33.718;73.040;2023-06-22T13:43:33;50.42;;;19.00;;
73331;SDS011;61560;33.718;73.040;2023-06-22T13:46:01;45.83;;;17.85;;
73331;SDS011;61560;33.718;73.040;2023-06-22T13:48:29;40.25;;;17.73;;
73331;SDS011;61560;33.718;73.040;2023-06-22T13:50:57;36.78;;;17.45;;
73331;SDS011;61560;33.718;73.040;2023-06-22T13:53:25;32.35;;;16.52;;
73331;SDS011;61560;33.718;73.040;2023-06-22T13:55:53;41.42;;;17.08;;
73331;SDS011;61560;33.718;73.040;2023-06-22T13:58:20;45.33;;;18.05;;
73331;SDS011;61560;33.718;73.040;2023-06-22T14:00:48;44.50;;;17.63;;
73331;SDS011;61560;33.718;73.040;2023-06-22T14:03:16;37.75;;;17.20;;
73331;SDS011;61560;33.718;73.040;2023-06-22T14:05:47;32.40;;;16.75;;
73331;SDS011;61560;33.718;73.040;2023-06-22T14:08:17;39.28;;;17.00;;
73331;SDS011;61560;33.718;73.040;2023-06-22T14:10:46;32.40;;;16.48;;
73331;SDS011;61560;33.718;73.040;2023-06-22T14:13:14;42.03;;;17.98;;
73331;SDS011;61560;33.718;73.040;2023-06-22T14:15:42;49.33;;;26.08;;
73331;SDS011;61560;33.718;73.040;2023-06-22T14:18:09;41.70;;;20.10;;
73331;SDS011;61560;33.718;73.040;2023-06-22T14:20:37;37.05;;;17.50;;
73331;SDS011;61560;33.718;73.040;2023-06-22T14:23:06;38.67;;;16.02;;
73331;SDS011;61560;33.718;73.040;2023-06-22T14:25:34;37.35;;;16.67;;
73331;SDS011;61560;33.718;73.040;2023-06-22T14:28:01;37.95;;;19.40;;
73331;SDS011;61560;33.718;73.040;2023-06-22T14:30:29;44.83;;;19.15;;
73331;SDS011;61560;33.718;73.040;2023-06-22T14:32:57;39.30;;;20.15;;
73331;SDS011;61560;33.718;73.040;2023-06-22T14:35:24;30.85;;;17.88;;
73331;SDS011;61560;33.718;73.040;2023-06-22T14:37:52;44.25;;;17.63;;
73331;SDS011;61560;33.718;73.040;2023-06-22T14:40:20;39.78;;;16.85;;
73331;SDS011;61560;33.718;73.040;2023-06-22T14:42:47;33.78;;;17.25;;
73331;SDS011;61560;33.718;73.040;2023-06-22T14:47:45;42.65;;;16.35;;
73331;SDS011;61560;33.718;73.040;2023-06-22T14:50:13;34.30;;;15.98;;
73331;SDS011;61560;33.718;73.040;2023-06-22T14:52:41;42.08;;;18.08;;
73331;SDS011;61560;33.718;73.040;2023-06-22T14:55:09;43.38;;;17.80;;
73331;SDS011;61560;33.718;73.040;2023-06-22T14:57:36;39.63;;;18.02;;
73331;SDS011;61560;33.718;73.040;2023-06-22T15:00:05;39.80;;;19.08;;
73331;SDS011;61560;33.718;73.040;2023-06-22T15:02:33;35.90;;;17.83;;
73331;SDS011;61560;33.718;73.040;2023-06-22T15:05:01;43.95;;;19.67;;
73331;SDS011;61560;33.718;73.040;2023-06-22T15:07:29;35.50;;;17.55;;
73331;SDS011;61560;33.718;73.040;2023-06-22T15:09:57;33.15;;;17.95;;
73331;SDS011;61560;33.718;73.040;2023-06-22T15:12:27;37.78;;;17.60;;
73331;SDS011;61560;33.718;73.040;2023-06-22T15:14:55;33.38;;;17.95;;
73331;SDS011;61560;33.718;73.040;2023-06-22T15:17:23;36.50;;;18.13;;
73331;SDS011;61560;33.718;73.040;2023-06-22T15:19:55;37.53;;;17.15;;
73331;SDS011;61560;33.718;73.040;2023-06-22T15:22:24;39.08;;;18.23;;
73331;SDS011;61560;33.718;73.040;2023-06-22T15:24:52;42.35;;;19.40;;
73331;SDS011;61560;33.718;73.040;2023-06-22T15:27:20;36.97;;;19.08;;
73331;SDS011;61560;33.718;73.040;2023-06-22T15:29:51;46.35;;;18.40;;
73331;SDS011;61560;33.718;73.040;2023-06-22T15:32:18;35.88;;;18.58;;
73331;SDS011;61560;33.718;73.040;2023-06-22T15:34:46;41.50;;;18.73;;
73331;SDS011;61560;33.718;73.040;2023-06-22T15:37:16;39.05;;;19.45;;